Time;durP1;ratioP1;P1;durP2;ratioP2;P2;SDS_P1;SDS_P2;PMS_P1;PMS_P2;Temp;Humidity;BMP_temperature;BMP_pressure;BME280_temperature;BME280_humidity;BME280_pressure;Samples;Min_cycle;Max_cycle;Signal;HPM_P1;HPM_P2
2021/01/06 00:01:00;;;;;;;9.02;6.20;;;4.80;99.90;;;;;;5074158;28;20199;-46
2021/01/06 00:03:28;;;;;;;7.88;6.22;;;5.20;99.90;;;;;;5072416;28;20223;-47
2021/01/06 00:05:57;;;;;;;8.13;5.80;;;5.00;99.90;;;;;;5074206;28;20278;-47
2021/01/06 00:08:25;;;;;;;7.70;6.25;;;4.90;99.90;;;;;;5073765;28;20537;-47
2021/01/06 00:10:53;;;;;;;6.45;5.05;;;5.00;99.90;;;;;;5072647;28;20203;-48
2021/01/06 00:13:20;;;;;;;8.52;6.00;;;5.20;99.90;;;;;;5073479;28;20214;-47
2021/01/06 00:15:47;;;;;;;9.73;6.15;;;5.00;99.90;;;;;;5074306;28;20230;-45
2021/01/06 00:18:15;;;;;;;11.18;6.45;;;5.00;99.90;;;;;;5073817;28;20221;-46
2021/01/06 00:20:42;;;;;;;8.60;5.55;;;4.90;99.90;;;;;;5073742;28;20623;-44
2021/01/06 00:23:09;;;;;;;7.28;5.57;;;5.10;99.90;;;;;;5073449;28;20233;-45
2021/01/06 00:25:37;;;;;;;7.50;5.10;;;5.20;99.90;;;;;;5073615;28;20244;-45
2021/01/06 00:28:05;;;;;;;12.63;5.38;;;5.00;99.90;;;;;;5073777;28;20199;-45
2021/01/06 00:30:34;;;;;;;7.72;5.30;;;5.20;99.90;;;;;;5073505;28;20230;-44
2021/01/06 00:33:04;;;;;;;8.77;5.55;;;5.10;99.90;;;;;;5073156;28;20742;-46
2021/01/06 00:35:31;;;;;;;6.28;4.60;;;5.20;99.90;;;;;;5073263;28;20191;-47
2021/01/06 00:37:57;;;;;;;6.95;4.75;;;5.10;99.90;;;;;;5073412;28;20590;-47
2021/01/06 00:40:28;;;;;;;7.30;4.97;;;5.30;99.90;;;;;;5073268;28;20270;-47
2021/01/06 00:42:56;;;;;;;6.55;5.03;;;5.10;99.90;;;;;;5072792;28;20309;-47
2021/01/06 00:45:23;;;;;;;8.27;4.63;;;4.90;99.90;;;;;;5073176;28;20191;-46
2021/01/06 00:47:50;;;;;;;7.10;5.10;;;5.00;99.90;;;;;;5073057;28;20202;-46
2021/01/06 00:50:19;;;;;;;5.00;3.90;;;5.00;99.90;;;;;;5073176;28;20683;-46
2021/01/06 00:52:45;;;;;;;8.05;4.60;;;4.40;99.90;;;;;;5072865;28;20215;-45
2021/01/06 00:55:13;;;;;;;8.88;5.28;;;4.90;99.90;;;;;;5071933;28;20253;-47
2021/01/06 00:57:41;;;;;;;6.72;5.68;;;5.10;99.90;;;;;;5071635;28;20826;-46
2021/01/06 01:00:14;;;;;;;6.45;5.00;;;5.10;99.90;;;;;;5071525;28;20291;-47
2021/01/06 01:02:44;;;;;;;6.95;5.10;;;4.90;99.90;;;;;;5070990;28;20575;-48
2021/01/06 01:05:12;;;;;;;6.47;4.93;;;5.00;99.90;;;;;;5072763;28;20557;-47
2021/01/06 01:07:39;;;;;;;5.53;4.43;;;5.10;99.90;;;;;;5071313;28;20196;-46
2021/01/06 01:10:06;;;;;;;6.40;4.95;;;5.10;99.90;;;;;;5072589;28;20215;-48
2021/01/06 01:12:34;;;;;;;9.07;4.50;;;4.90;99.90;;;;;;5072325;28;20649;-48
2021/01/06 01:15:01;;;;;;;6.43;3.90;;;5.20;99.90;;;;;;5072556;28;20191;-47
2021/01/06 01:17:28;;;;;;;8.10;3.33;;;5.20;99.90;;;;;;5071188;28;20198;-48
2021/01/06 01:19:54;;;;;;;4.70;3.85;;;5.00;99.90;;;;;;5074038;28;20187;-43
2021/01/06 01:22:21;;;;;;;3.50;3.10;;;4.90;99.90;;;;;;5072960;28;20230;-48
2021/01/06 01:24:47;;;;;;;6.82;4.78;;;4.90;99.90;;;;;;5072387;28;20200;-46
2021/01/06 01:27:14;;;;;;;5.00;2.95;;;5.00;99.90;;;;;;5072461;28;20590;-48
2021/01/06 01:29:40;;;;;;;5.53;3.38;;;4.90;99.90;;;;;;5072336;28;20215;-47
2021/01/06 01:32:08;;;;;;;3.80;3.00;;;5.00;99.90;;;;;;5072442;28;20211;-46
2021/01/06 01:34:34;;;;;;;5.80;3.15;;;4.90;99.90;;;;;;5072233;28;20195;-47
2021/01/06 01:37:01;;;;;;;4.20;3.30;;;5.00;99.90;;;;;;5072523;28;20398;-47
2021/01/06 01:39:27;;;;;;;3.80;2.80;;;4.80;99.90;;;;;;5072131;28;20607;-47
2021/01/06 01:41:57;;;;;;;3.90;3.08;;;5.00;99.90;;;;;;5071955;28;20218;-48
2021/01/06 01:44:24;;;;;;;4.75;2.75;;;5.00;99.90;;;;;;5072055;28;20237;-47
2021/01/06 01:47:14;;;;;;;3.88;2.70;;;4.90;99.90;;;;;;5072107;28;20191;-48
2021/01/06 01:49:45;;;;;;;3.58;2.50;;;4.80;99.90;;;;;;5072222;28;20218;-46
2021/01/06 01:52:22;;;;;;;3.45;2.05;;;4.60;99.90;;;;;;5071963;28;20238;-47
2021/01/06 01:54:49;;;;;;;3.78;3.00;;;4.90;99.90;;;;;;5071955;28;20540;-47
2021/01/06 01:57:21;;;;;;;3.50;3.05;;;4.20;99.90;;;;;;5071818;28;20226;-46
2021/01/06 01:59:52;;;;;;;3.85;2.65;;;4.80;99.90;;;;;;5071828;28;20262;-47
2021/01/06 02:02:29;;;;;;;4.07;3.05;;;5.10;99.90;;;;;;5071624;28;20218;-46
2021/01/06 02:05:00;;;;;;;3.80;3.22;;;5.00;99.90;;;;;;5070406;28;20203;-48
2021/01/06 02:07:30;;;;;;;5.15;3.38;;;4.80;99.90;;;;;;5071758;28;20260;-46
2021/01/06 02:10:00;;;;;;;2.58;2.38;;;4.70;99.90;;;;;;5071697;28;20215;-47
2021/01/06 02:12:34;;;;;;;3.88;2.95;;;4.90;99.90;;;;;;5071313;28;20207;-47
2021/01/06 02:15:08;;;;;;;2.38;2.08;;;4.70;99.90;;;;;;5071698;28;20194;-47
2021/01/06 02:17:35;;;;;;;5.57;2.60;;;4.80;99.90;;;;;;5071612;28;20198;-47
2021/01/06 02:20:04;;;;;;;3.00;2.40;;;5.00;99.90;;;;;;5071568;28;20204;-47
2021/01/06 02:22:32;;;;;;;6.22;2.15;;;4.70;99.90;;;;;;5071225;28;20632;-47
2021/01/06 02:24:58;;;;;;;3.30;2.45;;;4.80;99.90;;;;;;5071540;28;20191;-47
2021/01/06 02:27:25;;;;;;;2.72;2.13;;;5.00;99.90;;;;;;5071516;28;20207;-48
2021/01/06 02:29:52;;;;;;;2.88;2.30;;;4.90;99.90;;;;;;5071532;28;20211;-46
2021/01/06 02:32:18;;;;;;;5.75;3.10;;;4.80;99.90;;;;;;5071408;28;20648;-47
2021/01/06 02:34:45;;;;;;;2.10;1.67;;;4.70;99.90;;;;;;5075202;28;20206;-46
2021/01/06 02:37:14;;;;;;;3.55;2.80;;;5.10;99.90;;;;;;5075615;28;20191;-47
2021/01/06 02:39:41;;;;;;;2.78;2.03;;;4.60;99.90;;;;;;5075618;28;20671;-45
2021/01/06 02:42:08;;;;;;;3.03;2.25;;;4.60;99.90;;;;;;5073954;28;20699;-47
2021/01/06 02:44:35;;;;;;;2.90;2.40;;;4.80;99.90;;;;;;5075126;28;20195;-46
2021/01/06 02:47:01;;;;;;;2.63;2.35;;;4.70;99.90;;;;;;5075470;28;20298;-46
2021/01/06 02:49:29;;;;;;;2.67;1.98;;;4.70;99.90;;;;;;5075214;28;20255;-47
2021/01/06 02:52:02;;;;;;;4.30;2.42;;;4.70;99.90;;;;;;5075296;28;20211;-46
2021/01/06 02:54:32;;;;;;;2.63;1.95;;;4.50;99.90;;;;;;5075014;28;20198;-46
2021/01/06 02:57:01;;;;;;;2.75;2.28;;;4.40;99.90;;;;;;5075664;28;20191;-46
2021/01/06 02:59:32;;;;;;;4.30;2.00;;;4.70;99.90;;;;;;5073872;28;20601;-46
2021/01/06 03:02:00;;;;;;;3.38;2.42;;;4.10;99.90;;;;;;5075157;28;20207;-47
2021/01/06 03:04:29;;;;;;;4.38;1.92;;;4.50;99.90;;;;;;5074802;28;20190;-47
2021/01/06 03:06:59;;;;;;;2.30;1.73;;;4.80;99.90;;;;;;5075164;28;20219;-46
2021/01/06 03:09:31;;;;;;;2.10;1.85;;;4.60;99.90;;;;;;5074898;28;20799;-47
2021/01/06 03:12:01;;;;;;;2.00;1.63;;;4.50;99.90;;;;;;5074909;28;20264;-47
2021/01/06 03:14:30;;;;;;;2.47;2.15;;;4.70;99.90;;;;;;5074723;28;20290;-48
2021/01/06 03:16:58;;;;;;;2.58;1.95;;;4.50;99.90;;;;;;5075283;28;20196;-43
2021/01/06 03:19:27;;;;;;;2.72;2.10;;;4.40;99.90;;;;;;5075846;28;20267;-42
2021/01/06 03:21:55;;;;;;;3.30;1.90;;;4.60;99.90;;;;;;5089324;22;20254;-46
2021/01/06 03:24:27;;;;;;;2.38;1.90;;;4.50;99.90;;;;;;5074197;28;20200;-46
2021/01/06 03:26:56;;;;;;;2.35;1.65;;;4.50;99.90;;;;;;5074774;28;20187;-47
2021/01/06 03:29:25;;;;;;;2.38;1.33;;;4.30;99.90;;;;;;5074838;28;20701;-46
2021/01/06 03:31:53;;;;;;;3.25;1.90;;;4.50;99.90;;;;;;5074807;28;20298;-47
2021/01/06 03:34:23;;;;;;;2.25;1.55;;;4.60;99.90;;;;;;5074548;28;20200;-45
2021/01/06 03:36:55;;;;;;;2.55;1.75;;;4.50;99.90;;;;;;5073550;28;20211;-44
2021/01/06 03:39:28;;;;;;;2.25;1.60;;;4.60;99.90;;;;;;5074716;28;20564;-45
2021/01/06 03:41:55;;;;;;;2.30;1.85;;;4.40;99.90;;;;;;5074556;28;20272;-45
2021/01/06 03:44:25;;;;;;;2.50;1.95;;;4.50;99.90;;;;;;5073987;28;20195;-44
2021/01/06 03:46:58;;;;;;;2.17;1.70;;;4.70;99.90;;;;;;5073207;28;20275;-45
2021/01/06 03:49:43;;;;;;;2.60;1.42;;;4.50;99.90;;;;;;5074342;28;20219;-42
2021/01/06 03:52:19;;;;;;;1.95;1.40;;;4.40;99.90;;;;;;5073279;28;20215;-44
2021/01/06 03:54:53;;;;;;;1.92;1.60;;;4.30;99.90;;;;;;5074016;28;20191;-45
2021/01/06 03:57:22;;;;;;;2.00;1.60;;;4.50;99.90;;;;;;5074432;28;20244;-46
2021/01/06 03:59:51;;;;;;;2.20;1.42;;;4.30;99.90;;;;;;5074398;28;20203;-46
2021/01/06 04:02:21;;;;;;;3.83;1.75;;;4.40;99.90;;;;;;5074187;28;20211;-44
2021/01/06 04:04:51;;;;;;;3.42;1.63;;;4.40;99.90;;;;;;5074425;28;20680;-43
2021/01/06 04:07:24;;;;;;;1.83;1.30;;;4.30;99.90;;;;;;5074368;28;20656;-43
2021/01/06 04:09:55;;;;;;;3.92;1.75;;;4.20;99.90;;;;;;5074565;28;20211;-44
2021/01/06 04:12:22;;;;;;;1.80;1.38;;;4.30;99.90;;;;;;5075453;28;20222;-45
2021/01/06 04:14:49;;;;;;;1.65;1.17;;;4.20;99.90;;;;;;5074985;28;20537;-46
2021/01/06 04:17:24;;;;;;;1.50;1.20;;;4.40;99.90;;;;;;5075049;28;20191;-46
2021/01/06 04:19:53;;;;;;;2.45;1.50;;;4.40;99.90;;;;;;5074860;28;20194;-51
2021/01/06 04:22:37;;;;;;;2.58;1.60;;;4.40;99.90;;;;;;5074569;28;20648;-46
2021/01/06 04:25:06;;;;;;;1.95;1.40;;;4.30;99.90;;;;;;5074389;28;20191;-46
2021/01/06 04:27:32;;;;;;;1.75;1.42;;;4.20;99.90;;;;;;5074723;28;20194;-46
2021/01/06 04:30:00;;;;;;;2.97;1.60;;;4.50;99.90;;;;;;5074164;28;20706;-45
2021/01/06 04:32:30;;;;;;;2.60;1.40;;;4.20;99.90;;;;;;5073824;28;20268;-46
2021/01/06 04:34:57;;;;;;;2.78;1.40;;;4.40;99.90;;;;;;5074222;28;20210;-46
2021/01/06 04:37:23;;;;;;;1.58;1.23;;;4.60;99.90;;;;;;5072855;28;20207;-44
2021/01/06 04:39:50;;;;;;;1.58;1.30;;;4.40;99.90;;;;;;5074253;28;20197;-44
2021/01/06 04:42:19;;;;;;;1.40;1.20;;;4.20;99.90;;;;;;5073958;28;20207;-46
2021/01/06 04:44:55;;;;;;;2.90;1.00;;;4.10;99.90;;;;;;5073978;28;20675;-45
2021/01/06 04:48:01;;;;;;;1.92;1.10;;;4.40;99.90;;;;;;5073816;28;20201;-47
2021/01/06 04:50:55;;;;;;;2.38;1.00;;;4.20;99.90;;;;;;5073597;28;20223;-47
2021/01/06 04:53:32;;;;;;;1.70;1.08;;;4.20;99.90;;;;;;5073708;28;20219;-47
2021/01/06 04:56:14;;;;;;;1.50;1.10;;;3.90;99.90;;;;;;5073565;28;20202;-46
2021/01/06 04:58:49;;;;;;;1.20;1.05;;;4.10;99.90;;;;;;5074156;28;20206;-47
2021/01/06 05:01:39;;;;;;;1.30;1.05;;;4.10;99.90;;;;;;5073843;28;20191;-50
2021/01/06 05:04:47;;;;;;;1.20;0.82;;;4.00;99.90;;;;;;5073572;28;20553;-46
2021/01/06 05:07:24;;;;;;;1.23;0.90;;;4.00;99.90;;;;;;5073308;28;20200;-47
2021/01/06 05:10:00;;;;;;;3.55;1.23;;;4.40;99.90;;;;;;5073402;28;20237;-47
2021/01/06 05:12:33;;;;;;;1.35;1.00;;;4.20;99.90;;;;;;5072719;28;20237;-46
2021/01/06 05:15:23;;;;;;;1.60;1.13;;;3.90;99.90;;;;;;5073438;28;20191;-46
2021/01/06 05:17:50;;;;;;;4.20;1.48;;;4.00;99.90;;;;;;5073305;28;20191;-45
2021/01/06 05:20:17;;;;;;;2.15;1.20;;;4.10;99.90;;;;;;5074130;28;20240;-41
2021/01/06 05:22:44;;;;;;;1.40;1.10;;;4.10;99.90;;;;;;5072896;28;20227;-46
2021/01/06 05:25:14;;;;;;;1.45;1.02;;;4.20;99.90;;;;;;5073049;28;20265;-44
2021/01/06 05:27:42;;;;;;;1.65;0.95;;;4.00;99.90;;;;;;5073633;28;20195;-43
2021/01/06 05:30:20;;;;;;;1.10;0.82;;;4.10;99.90;;;;;;5072715;28;20276;-41
2021/01/06 05:32:46;;;;;;;1.45;0.77;;;4.00;99.90;;;;;;5072368;28;20222;-45
2021/01/06 05:35:17;;;;;;;1.73;0.80;;;4.00;99.90;;;;;;5072515;28;20225;-43
2021/01/06 05:37:48;;;;;;;1.48;0.90;;;4.00;99.90;;;;;;5072654;28;20191;-45
2021/01/06 05:40:15;;;;;;;1.50;1.00;;;4.00;99.90;;;;;;5071520;28;20202;-45
2021/01/06 05:42:49;;;;;;;1.15;0.90;;;4.00;99.90;;;;;;5072095;28;20529;-45
2021/01/06 05:45:16;;;;;;;2.22;1.35;;;4.00;99.90;;;;;;5072673;28;20206;-44
2021/01/06 05:47:46;;;;;;;1.48;1.25;;;4.00;99.90;;;;;;5072370;28;20198;-46
2021/01/06 05:50:17;;;;;;;1.00;0.85;;;4.00;99.90;;;;;;5072831;28;20223;-46
2021/01/06 05:52:56;;;;;;;1.20;1.00;;;4.10;99.90;;;;;;5072994;28;20220;-44
2021/01/06 05:55:24;;;;;;;1.73;1.00;;;3.90;99.90;;;;;;5072628;28;20214;-45
2021/01/06 05:58:02;;;;;;;2.13;1.40;;;4.00;99.90;;;;;;5073033;28;20222;-43
2021/01/06 06:00:41;;;;;;;1.90;1.00;;;4.00;99.90;;;;;;5072647;28;20191;-45
2021/01/06 06:03:41;;;;;;;3.65;1.65;;;4.00;99.90;;;;;;5071898;28;20264;-45
2021/01/06 06:06:37;;;;;;;1.30;1.10;;;3.90;99.90;;;;;;5060159;28;20306;-46
2021/01/06 06:09:10;;;;;;;2.10;1.67;;;3.90;99.90;;;;;;5071372;28;20686;-44
2021/01/06 06:12:19;;;;;;;2.25;1.20;;;4.00;99.90;;;;;;5072059;28;20191;-45
2021/01/06 06:15:13;;;;;;;4.55;1.95;;;4.00;99.90;;;;;;5072050;28;20225;-44
2021/01/06 06:18:07;;;;;;;1.30;1.10;;;4.00;99.90;;;;;;5070587;28;20561;-45
2021/01/06 06:20:47;;;;;;;4.15;1.63;;;3.90;99.90;;;;;;5072284;28;20191;-44
2021/01/06 06:23:40;;;;;;;1.45;1.15;;;4.20;99.90;;;;;;5072001;28;20219;-43
2021/01/06 06:26:11;;;;;;;1.55;1.17;;;3.90;99.90;;;;;;5072040;28;20253;-46
2021/01/06 06:28:43;;;;;;;1.35;0.93;;;3.90;99.90;;;;;;5073361;28;20195;-43
2021/01/06 06:31:23;;;;;;;1.90;1.20;;;3.90;99.90;;;;;;5072097;28;20276;-45
2021/01/06 06:33:54;;;;;;;1.75;1.30;;;3.80;99.90;;;;;;5070090;28;20199;-45
2021/01/06 06:36:24;;;;;;;1.38;1.20;;;3.60;99.90;;;;;;5072146;28;20210;-48
2021/01/06 06:38:53;;;;;;;4.20;1.40;;;3.60;99.90;;;;;;5071780;28;20520;-46
2021/01/06 06:41:31;;;;;;;2.08;1.40;;;3.90;99.90;;;;;;5072007;28;20287;-45
2021/01/06 06:44:22;;;;;;;1.90;1.50;;;3.70;99.90;;;;;;5071930;28;20611;-46
2021/01/06 06:47:12;;;;;;;1.70;1.20;;;3.70;99.90;;;;;;5071966;28;20344;-44
2021/01/06 06:50:30;;;;;;;3.63;2.05;;;3.60;99.90;;;;;;5069359;28;20230;-44
2021/01/06 06:53:07;;;;;;;1.83;1.45;;;3.80;99.90;;;;;;5046517;28;20305;-46
2021/01/06 06:55:44;;;;;;;2.53;1.50;;;3.60;99.90;;;;;;5072821;28;20215;-44
2021/01/06 06:58:43;;;;;;;6.00;2.03;;;3.60;99.90;;;;;;5072203;28;20195;-46
2021/01/06 07:01:13;;;;;;;1.98;1.58;;;3.70;99.90;;;;;;5059471;28;20208;-44
2021/01/06 07:03:50;;;;;;;3.92;2.05;;;3.40;99.90;;;;;;5071926;28;20226;-44
2021/01/06 07:06:17;;;;;;;4.47;2.55;;;3.70;99.90;;;;;;5073067;28;20264;-45
2021/01/06 07:08:46;;;;;;;2.15;1.95;;;3.80;99.90;;;;;;5072103;28;20207;-45
2021/01/06 07:11:30;;;;;;;5.75;2.15;;;3.90;99.90;;;;;;5072407;28;20683;-44
2021/01/06 07:14:02;;;;;;;6.45;4.55;;;3.90;99.90;;;;;;5072287;28;20187;-45
2021/01/06 07:17:03;;;;;;;4.35;3.15;;;3.80;99.90;;;;;;5072620;28;20214;-44
2021/01/06 07:19:33;;;;;;;3.38;2.55;;;3.50;99.90;;;;;;5074238;28;20191;-46
2021/01/06 07:22:12;;;;;;;2.65;2.05;;;3.60;99.90;;;;;;5076644;28;20563;-48
2021/01/06 07:24:40;;;;;;;3.60;2.10;;;3.50;99.90;;;;;;5074464;28;20199;-45
2021/01/06 07:27:07;;;;;;;5.68;2.47;;;3.60;99.90;;;;;;5076201;28;20191;-47
2021/01/06 07:29:46;;;;;;;2.70;2.10;;;3.60;99.90;;;;;;5075203;28;20223;-44
2021/01/06 07:32:13;;;;;;;3.03;2.30;;;3.80;99.90;;;;;;5074867;28;20215;-43
2021/01/06 07:34:44;;;;;;;3.40;2.30;;;3.60;99.90;;;;;;5073830;28;20266;-44
2021/01/06 07:37:29;;;;;;;3.42;2.35;;;3.50;99.90;;;;;;5075110;28;20195;-45
2021/01/06 07:40:03;;;;;;;2.70;1.63;;;3.60;99.90;;;;;;5075075;28;20187;-44
2021/01/06 07:42:38;;;;;;;2.42;2.05;;;3.60;99.90;;;;;;5073382;28;20233;-46
2021/01/06 07:45:39;;;;;;;2.92;2.35;;;3.60;99.90;;;;;;5075003;28;20198;-44
2021/01/06 07:48:27;;;;;;;3.05;2.05;;;3.60;99.90;;;;;;5070306;28;20280;-45
2021/01/06 07:51:00;;;;;;;5.05;2.50;;;3.80;99.90;;;;;;5074533;28;20581;-44
2021/01/06 07:53:35;;;;;;;3.78;2.25;;;3.60;99.90;;;;;;5074377;28;20226;-45
2021/01/06 07:56:13;;;;;;;2.78;1.80;;;3.60;99.90;;;;;;5074868;28;20206;-45
2021/01/06 07:58:44;;;;;;;2.17;1.80;;;3.60;99.90;;;;;;5074866;28;20191;-45
2021/01/06 08:01:20;;;;;;;2.80;2.20;;;3.70;99.90;;;;;;5075348;28;20250;-45
2021/01/06 08:03:52;;;;;;;3.90;2.30;;;3.50;99.90;;;;;;5074944;28;20210;-45
2021/01/06 08:06:20;;;;;;;7.25;2.38;;;3.80;99.90;;;;;;5075156;28;20203;-45
2021/01/06 08:08:48;;;;;;;2.90;2.60;;;3.70;99.90;;;;;;5074704;28;20191;-48
2021/01/06 08:11:18;;;;;;;2.50;1.77;;;3.70;99.90;;;;;;5074501;28;20223;-45
2021/01/06 08:14:01;;;;;;;5.18;2.33;;;3.60;99.90;;;;;;5073734;28;20230;-43
2021/01/06 08:16:40;;;;;;;3.33;2.45;;;3.70;99.90;;;;;;5074261;28;20199;-45
2021/01/06 08:19:16;;;;;;;2.65;1.65;;;3.50;99.90;;;;;;5074033;28;20284;-44
2021/01/06 08:21:51;;;;;;;5.35;2.20;;;3.80;99.90;;;;;;5073868;28;20561;-46
2021/01/06 08:24:27;;;;;;;2.88;2.45;;;3.50;99.90;;;;;;5073713;28;20226;-44
2021/01/06 08:26:55;;;;;;;2.92;1.83;;;3.60;99.90;;;;;;5074088;28;20260;-46
2021/01/06 08:29:24;;;;;;;3.00;2.47;;;3.90;99.90;;;;;;5074008;28;20245;-42
2021/01/06 08:31:53;;;;;;;4.28;2.38;;;3.50;99.90;;;;;;5074065;28;20675;-43
2021/01/06 08:34:26;;;;;;;2.97;2.20;;;3.70;99.90;;;;;;5074389;28;20194;-45
2021/01/06 08:37:02;;;;;;;3.15;2.25;;;3.50;99.90;;;;;;5074843;28;20195;-45
2021/01/06 08:39:31;;;;;;;3.33;2.30;;;3.90;99.90;;;;;;5075048;28;20198;-44
2021/01/06 08:42:08;;;;;;;5.97;1.95;;;3.90;99.90;;;;;;5074431;28;20207;-44
2021/01/06 08:44:41;;;;;;;3.20;2.00;;;3.80;99.90;;;;;;5073398;28;20194;-46
2021/01/06 08:47:10;;;;;;;4.18;2.60;;;3.90;99.90;;;;;;5073484;28;20350;-44
2021/01/06 08:49:39;;;;;;;4.15;2.70;;;3.70;99.90;;;;;;5073652;28;20207;-45
2021/01/06 08:52:27;;;;;;;2.17;1.90;;;3.70;99.90;;;;;;5073547;28;20208;-44
2021/01/06 08:55:06;;;;;;;3.05;2.42;;;3.90;99.90;;;;;;5073498;28;20719;-46
2021/01/06 08:57:35;;;;;;;3.67;2.67;;;3.90;99.90;;;;;;5070147;28;20278;-46
2021/01/06 09:00:28;;;;;;;5.57;2.90;;;4.10;99.90;;;;;;5072522;28;20336;-44
2021/01/06 09:02:57;;;;;;;5.30;3.22;;;4.10;99.90;;;;;;5072916;28;20216;-46
2021/01/06 09:05:54;;;;;;;3.88;2.70;;;4.10;99.90;;;;;;5073279;28;20216;-47
2021/01/06 09:08:24;;;;;;;5.43;3.53;;;4.10;99.90;;;;;;5053245;28;20198;-46
2021/01/06 09:11:12;;;;;;;3.83;3.45;;;3.80;99.90;;;;;;5053083;28;20234;-45
2021/01/06 09:13:41;;;;;;;9.52;3.22;;;3.90;99.90;;;;;;5051602;28;20239;-43
2021/01/06 09:16:15;;;;;;;5.03;3.50;;;3.90;99.90;;;;;;5067090;28;20199;-45
2021/01/06 09:18:51;;;;;;;4.95;3.42;;;3.80;99.90;;;;;;5071667;28;20194;-47
2021/01/06 09:21:21;;;;;;;10.00;2.90;;;4.00;99.90;;;;;;5073312;28;20194;-45
2021/01/06 09:23:52;;;;;;;6.45;3.00;;;3.90;99.90;;;;;;5095825;22;20265;-44
2021/01/06 09:26:22;;;;;;;5.05;3.00;;;4.20;99.90;;;;;;5087183;28;20202;-43
2021/01/06 09:28:59;;;;;;;11.98;3.78;;;4.60;99.90;;;;;;5091680;28;20206;-44
2021/01/06 09:31:28;;;;;;;6.40;3.45;;;4.20;99.90;;;;;;5085721;28;20245;-45
2021/01/06 09:33:58;;;;;;;4.10;3.17;;;4.30;99.90;;;;;;5071392;28;20745;-43
2021/01/06 09:36:26;;;;;;;5.55;3.83;;;4.20;99.90;;;;;;5071173;28;20230;-45
2021/01/06 09:38:55;;;;;;;3.80;3.05;;;4.20;99.90;;;;;;5072367;28;20191;-43
2021/01/06 09:41:26;;;;;;;4.03;2.55;;;4.30;99.90;;;;;;5072014;28;20195;-45
2021/01/06 09:43:58;;;;;;;3.33;2.45;;;4.30;99.90;;;;;;5070416;28;20227;-44
2021/01/06 09:46:34;;;;;;;4.85;2.80;;;4.40;99.90;;;;;;5072352;28;20590;-46
2021/01/06 09:49:06;;;;;;;3.78;2.65;;;4.20;99.90;;;;;;5072213;28;20195;-44
2021/01/06 09:51:35;;;;;;;3.95;3.08;;;4.50;99.90;;;;;;5083857;28;20348;-45
2021/01/06 09:54:05;;;;;;;3.22;2.92;;;4.20;99.90;;;;;;5091628;28;20279;-45
2021/01/06 09:56:35;;;;;;;3.72;2.67;;;4.50;99.90;;;;;;5092263;28;20241;-46
2021/01/06 09:59:04;;;;;;;3.50;3.20;;;4.30;99.90;;;;;;5092469;28;20222;-43
2021/01/06 10:01:37;;;;;;;4.68;2.75;;;4.50;99.90;;;;;;5092025;28;20568;-44
2021/01/06 10:04:15;;;;;;;4.90;2.80;;;4.30;99.90;;;;;;5091283;28;20702;-45
2021/01/06 10:06:49;;;;;;;3.80;2.70;;;4.30;99.90;;;;;;5081659;28;20278;-45
2021/01/06 10:09:26;;;;;;;4.40;3.00;;;4.30;99.90;;;;;;5071160;28;20682;-46
2021/01/06 10:12:37;;;;;;;4.45;3.28;;;4.60;99.90;;;;;;5071394;28;20195;-45
2021/01/06 10:15:26;;;;;;;4.55;3.00;;;4.60;99.90;;;;;;5033851;28;20202;-46
2021/01/06 10:18:19;;;;;;;3.20;2.60;;;4.70;99.90;;;;;;5063189;28;20231;-46
2021/01/06 10:20:54;;;;;;;11.20;7.40;;;4.60;99.90;;;;;;5066314;28;20525;-46
2021/01/06 10:23:48;;;;;;;7.40;4.40;;;4.60;99.90;;;;;;5070618;28;20276;-48
2021/01/06 10:26:36;;;;;;;4.65;3.20;;;4.50;99.90;;;;;;5085603;28;20211;-47
2021/01/06 10:29:12;;;;;;;6.25;2.65;;;4.70;99.90;;;;;;5091033;28;20218;-46
2021/01/06 10:32:04;;;;;;;3.03;2.70;;;4.50;99.90;;;;;;5091165;28;20248;-46
2021/01/06 10:34:35;;;;;;;2.85;2.17;;;4.90;99.90;;;;;;5091540;28;20202;-46
2021/01/06 10:37:17;;;;;;;4.75;3.10;;;4.30;99.90;;;;;;5091064;28;20297;-46
2021/01/06 10:39:46;;;;;;;3.17;2.45;;;4.70;99.90;;;;;;5091450;28;20201;-47
2021/01/06 10:42:29;;;;;;;4.32;2.30;;;4.60;99.90;;;;;;5091048;28;20631;-47
2021/01/06 10:44:59;;;;;;;7.90;2.90;;;4.70;99.90;;;;;;5090828;28;20198;-47
2021/01/06 10:47:37;;;;;;;3.92;3.60;;;4.60;99.90;;;;;;5090584;28;20191;-47
2021/01/06 10:50:28;;;;;;;3.90;2.38;;;4.70;99.90;;;;;;5090682;28;20246;-47
2021/01/06 10:53:00;;;;;;;2.40;1.98;;;4.60;99.90;;;;;;5090548;28;20301;-46
2021/01/06 10:55:41;;;;;;;5.72;2.40;;;4.60;99.90;;;;;;5093997;28;20690;-47
2021/01/06 10:58:36;;;;;;;3.58;1.85;;;4.00;99.90;;;;;;5094589;28;20198;-48
2021/01/06 11:01:39;;;;;;;3.90;2.58;;;4.40;99.90;;;;;;5093534;28;20557;-44
2021/01/06 11:04:28;;;;;;;4.07;2.40;;;4.70;99.90;;;;;;5097772;28;20218;-41
2021/01/06 11:07:01;;;;;;;3.00;1.95;;;4.50;99.90;;;;;;5085731;28;20204;-43
2021/01/06 11:09:49;;;;;;;4.63;2.20;;;4.60;99.90;;;;;;5076420;28;20566;-46
2021/01/06 11:12:27;;;;;;;4.45;2.50;;;4.70;99.90;;;;;;5074523;28;20237;-44
2021/01/06 11:15:33;;;;;;;4.63;2.38;;;4.80;99.90;;;;;;5072898;28;20198;-48
2021/01/06 11:18:15;;;;;;;2.30;1.70;;;4.70;99.90;;;;;;5073003;28;20213;-45
2021/01/06 11:20:45;;;;;;;3.28;2.35;;;4.80;99.90;;;;;;5074392;28;20191;-47
2021/01/06 11:23:44;;;;;;;6.35;1.90;;;5.00;99.90;;;;;;5073847;28;20254;-47
2021/01/06 11:26:46;;;;;;;2.60;2.13;;;4.60;99.90;;;;;;5027907;28;20205;-45
2021/01/06 11:29:27;;;;;;;4.47;2.13;;;4.70;99.90;;;;;;5011356;28;20208;-46
2021/01/06 11:32:28;;;;;;;4.50;2.50;;;4.70;99.90;;;;;;5010337;28;20279;-46
2021/01/06 11:35:14;;;;;;;3.08;1.77;;;4.70;99.90;;;;;;5066153;28;20211;-47
2021/01/06 11:37:46;;;;;;;3.40;2.35;;;4.70;99.90;;;;;;5086192;28;20655;-47
2021/01/06 11:40:37;;;;;;;3.90;2.08;;;4.60;99.90;;;;;;5093300;28;20451;-45
2021/01/06 11:43:41;;;;;;;2.95;2.45;;;4.90;99.90;;;;;;5073439;28;20238;-47
2021/01/06 11:46:43;;;;;;;2.40;1.80;;;4.80;99.90;;;;;;5073603;28;20187;-47
2021/01/06 11:49:46;;;;;;;3.60;2.30;;;4.80;99.90;;;;;;5073272;28;20270;-47
2021/01/06 11:52:36;;;;;;;3.67;2.40;;;4.50;99.90;;;;;;5063234;28;20820;-46
2021/01/06 11:55:38;;;;;;;3.50;2.60;;;4.80;99.90;;;;;;5093903;28;20484;-46
2021/01/06 11:58:45;;;;;;;2.85;2.30;;;5.10;99.90;;;;;;5014543;28;20231;-46
2021/01/06 12:01:35;;;;;;;3.53;2.17;;;5.10;99.90;;;;;;5022228;28;20215;-47
2021/01/06 12:04:22;;;;;;;2.47;1.70;;;4.80;99.90;;;;;;5066452;28;20680;-41
2021/01/06 12:07:00;;;;;;;3.63;1.70;;;4.70;99.90;;;;;;5078049;28;20248;-47
2021/01/06 12:09:37;;;;;;;2.78;1.92;;;5.00;99.90;;;;;;5071687;28;20205;-47
2021/01/06 12:12:41;;;;;;;2.20;1.65;;;4.90;99.90;;;;;;5072971;28;20380;-48
2021/01/06 12:15:33;;;;;;;7.65;1.90;;;4.80;99.90;;;;;;5041530;28;20211;-47
2021/01/06 12:18:05;;;;;;;4.07;1.80;;;4.90;99.90;;;;;;5072965;28;20556;-47
2021/01/06 12:20:34;;;;;;;5.50;2.10;;;5.00;99.90;;;;;;5072669;28;20187;-47
2021/01/06 12:23:42;;;;;;;4.25;1.40;;;4.80;99.90;;;;;;5070853;28;20296;-47
2021/01/06 12:26:50;;;;;;;3.30;2.13;;;4.60;99.90;;;;;;5025780;28;20280;-46
2021/01/06 12:29:20;;;;;;;2.00;1.60;;;4.80;99.90;;;;;;5007647;28;20307;-43
2021/01/06 12:31:55;;;;;;;6.15;2.30;;;4.80;99.90;;;;;;5079573;28;20690;-48
2021/01/06 12:34:28;;;;;;;2.83;2.10;;;5.00;99.90;;;;;;5092528;28;20565;-44
2021/01/06 12:37:25;;;;;;;3.50;2.38;;;5.00;99.90;;;;;;5092805;28;20205;-44
2021/01/06 12:40:15;;;;;;;3.40;2.20;;;4.90;99.90;;;;;;5088979;28;20195;-48
2021/01/06 12:42:51;;;;;;;3.75;2.00;;;4.70;99.90;;;;;;5082135;28;20272;-47
2021/01/06 12:45:22;;;;;;;4.65;2.80;;;4.80;99.90;;;;;;5084027;28;20203;-45
2021/01/06 12:47:56;;;;;;;2.83;1.92;;;4.80;99.90;;;;;;5074771;28;20203;-48
2021/01/06 12:50:27;;;;;;;4.10;2.42;;;5.10;99.90;;;;;;5072496;28;20262;-46
2021/01/06 12:52:56;;;;;;;1.80;1.42;;;4.70;99.90;;;;;;5071993;28;20218;-46
2021/01/06 12:55:32;;;;;;;3.08;1.88;;;5.00;99.90;;;;;;5072131;28;20195;-46
2021/01/06 12:58:07;;;;;;;4.10;2.50;;;5.00;99.90;;;;;;5081282;28;20413;-45
2021/01/06 13:00:38;;;;;;;3.22;2.65;;;4.90;99.90;;;;;;5074300;28;20678;-44
2021/01/06 13:03:23;;;;;;;5.38;2.30;;;4.90;99.90;;;;;;5086865;28;20319;-50
2021/01/06 13:05:54;;;;;;;3.65;3.03;;;4.90;99.90;;;;;;5089961;28;20199;-47
2021/01/06 13:08:29;;;;;;;5.05;2.97;;;5.10;99.90;;;;;;5092242;28;20190;-46
2021/01/06 13:11:07;;;;;;;4.07;3.20;;;5.00;99.90;;;;;;5085724;28;20241;-45
2021/01/06 13:13:38;;;;;;;12.30;6.95;;;4.90;99.90;;;;;;5073216;28;20238;-44
2021/01/06 13:16:31;;;;;;;3.28;2.25;;;4.90;99.90;;;;;;5093011;28;20273;-46
2021/01/06 13:19:23;;;;;;;4.72;3.05;;;4.90;99.90;;;;;;5093224;28;20285;-44
2021/01/06 13:22:05;;;;;;;3.50;2.20;;;4.90;99.90;;;;;;5091949;28;20262;-42
2021/01/06 13:24:34;;;;;;;3.85;1.85;;;4.80;99.90;;;;;;5089373;28;20190;-43
2021/01/06 13:27:04;;;;;;;2.88;2.13;;;4.80;99.90;;;;;;5073801;28;20195;-44
2021/01/06 13:29:37;;;;;;;2.50;2.30;;;5.00;99.90;;;;;;5073638;28;20276;-46
2021/01/06 13:32:17;;;;;;;2.45;2.25;;;4.90;99.90;;;;;;5071101;28;20663;-46
2021/01/06 13:34:51;;;;;;;4.13;3.25;;;5.00;99.90;;;;;;5071556;28;20203;-46
2021/01/06 13:37:33;;;;;;;5.60;3.35;;;4.80;99.90;;;;;;5071702;28;20202;-47
2021/01/06 13:40:27;;;;;;;3.90;2.35;;;4.70;99.90;;;;;;5071559;28;20264;-47
2021/01/06 13:43:07;;;;;;;3.05;2.05;;;4.80;99.90;;;;;;5069802;28;20234;-44